Time;durP1;ratioP1;P1;durP2;ratioP2;P2;SDS_P1;SDS_P2;PMS_P1;PMS_P2;Temp;Humidity;BMP_temperature;BMP_pressure;BME280_temperature;BME280_humidity;BME280_pressure;Samples;Min_cycle;Max_cycle;Signal;HPM_P1;HPM_P2
2022/10/09 00:01:12;;;;;;;7.15;6.25;;;;;;;19.80;52.36;101752.08;1497557;95;21030;-51
2022/10/09 00:03:41;;;;;;;7.50;5.35;;;;;;;19.75;52.78;101747.45;1535438;93;21115;-57
2022/10/09 00:06:09;;;;;;;7.58;6.17;;;;;;;19.70;53.05;101748.13;1535453;93;21532;-50
2022/10/09 00:08:40;;;;;;;10.40;5.85;;;;;;;19.67;53.13;101751.76;1535416;93;21517;-49
2022/10/09 00:11:09;;;;;;;7.42;5.28;;;;;;;19.65;53.17;101742.18;1535785;93;21083;-50
2022/10/09 00:13:36;;;;;;;6.35;5.15;;;;;;;19.63;52.96;101744.03;1535594;93;21083;-56
2022/10/09 00:16:06;;;;;;;6.62;5.28;;;;;;;19.59;53.11;101737.17;1535393;93;21540;-50
2022/10/09 00:18:34;;;;;;;8.98;5.65;;;;;;;19.55;52.83;101738.23;1528549;93;21163;-53
2022/10/09 00:21:01;;;;;;;6.37;5.45;;;;;;;19.53;52.70;101738.75;1517406;95;21108;-50
2022/10/09 00:23:28;;;;;;;6.72;5.65;;;;;;;19.51;52.34;101744.56;1529095;94;21624;-52
2022/10/09 00:25:59;;;;;;;6.70;5.15;;;;;;;19.47;52.33;101739.41;1541983;93;21084;-55
2022/10/09 00:28:28;;;;;;;6.92;5.42;;;;;;;19.45;52.30;101735.14;1537287;93;21607;-57
2022/10/09 00:30:54;;;;;;;7.87;5.42;;;;;;;19.41;52.22;101725.63;1564010;91;21070;-52
2022/10/09 00:33:21;;;;;;;6.58;4.97;;;;;;;19.38;52.31;101725.75;1573826;90;21089;-50
2022/10/09 00:35:48;;;;;;;11.15;6.10;;;;;;;19.37;52.20;101722.73;1574088;90;21550;-53
2022/10/09 00:38:14;;;;;;;7.15;5.33;;;;;;;19.35;52.20;101722.77;1568640;91;21142;-53
2022/10/09 00:40:41;;;;;;;8.10;5.45;;;;;;;19.32;52.09;101728.16;1573981;90;21078;-51
2022/10/09 00:43:18;;;;;;;5.85;5.25;;;;;;;19.31;52.23;101726.89;1631700;84;21504;-52
2022/10/09 00:45:53;;;;;;;8.03;5.70;;;;;;;19.29;52.34;101729.60;1667314;84;21096;-50
2022/10/09 00:48:19;;;;;;;6.92;6.00;;;;;;;19.27;52.56;101726.62;1670923;84;21052;-52
2022/10/09 00:50:53;;;;;;;10.28;6.12;;;;;;;19.23;52.53;101723.72;1668536;84;21491;-50
2022/10/09 00:53:22;;;;;;;8.00;5.55;;;;;;;19.21;52.54;101726.42;1665618;84;21060;-52
2022/10/09 00:55:49;;;;;;;7.20;6.10;;;;;;;19.20;52.63;101728.69;1673235;84;21004;-53
2022/10/09 00:58:16;;;;;;;7.22;5.37;;;;;;;19.18;52.87;101729.66;1670427;85;21060;-56
2022/10/09 01:00:42;;;;;;;7.53;5.37;;;;;;;19.15;52.97;101731.09;1670789;84;21520;-51
2022/10/09 01:03:09;;;;;;;8.33;5.58;;;;;;;19.12;53.09;101732.11;1669772;84;21536;-51
2022/10/09 01:05:56;;;;;;;7.03;5.97;;;;;;;19.08;53.28;101729.66;1667604;84;21016;-50
2022/10/09 01:08:45;;;;;;;6.95;5.25;;;;;;;19.07;53.36;101724.83;1673926;84;20997;-52
2022/10/09 01:11:20;;;;;;;8.08;5.45;;;;;;;19.04;53.54;101723.62;1670631;84;21076;-51
2022/10/09 01:14:18;;;;;;;12.65;5.90;;;;;;;19.02;53.79;101733.87;1669271;84;21037;-52
2022/10/09 01:17:01;;;;;;;6.30;5.22;;;;;;;19.01;53.91;101725.54;1658752;84;21100;-52
2022/10/09 01:19:52;;;;;;;6.70;5.50;;;;;;;18.98;53.85;101723.88;1665530;84;21102;-51
2022/10/09 01:22:40;;;;;;;6.10;5.42;;;;;;;18.98;53.97;101729.16;1609220;88;21065;-50
2022/10/09 01:25:10;;;;;;;6.92;5.15;;;;;;;18.94;53.57;101731.52;1510574;94;21088;-52
2022/10/09 01:27:37;;;;;;;6.72;5.60;;;;;;;18.93;53.34;101725.86;1510732;94;21068;-51
2022/10/09 01:30:09;;;;;;;16.02;5.90;;;;;;;18.94;53.05;101722.29;1510978;94;21165;-53
2022/10/09 01:32:43;;;;;;;7.87;5.80;;;;;;;18.95;52.99;101722.70;1511934;94;21537;-51
2022/10/09 01:35:11;;;;;;;5.87;5.12;;;;;;;18.98;52.96;101723.88;1492028;95;21250;-50
2022/10/09 01:37:39;;;;;;;6.53;5.42;;;;;;;19.00;52.89;101723.84;1496103;95;21676;-52
2022/10/09 01:40:07;;;;;;;7.67;5.45;;;;;;;19.02;52.74;101724.63;1494498;95;21569;-52
2022/10/09 01:42:34;;;;;;;6.58;5.97;;;;;;;19.02;52.65;101722.00;1494460;95;21532;-50
2022/10/09 01:45:01;;;;;;;9.43;5.65;;;;;;;19.03;52.34;101723.70;1487790;95;21637;-50
2022/10/09 01:47:28;;;;;;;7.15;5.70;;;;;;;19.02;52.39;101719.36;1494513;95;21080;-52
2022/10/09 01:50:03;;;;;;;8.98;6.03;;;;;;;19.01;52.31;101718.49;1496228;95;21116;-50
2022/10/09 01:52:47;;;;;;;10.05;5.50;;;;;;;19.02;52.08;101721.51;1496177;95;21180;-52
2022/10/09 01:55:35;;;;;;;6.15;5.12;;;;;;;19.01;52.02;101720.27;1495974;95;21104;-50
2022/10/09 01:58:34;;;;;;;7.65;5.97;;;;;;;19.01;52.05;101722.90;1485601;95;21645;-53
2022/10/09 02:01:15;;;;;;;7.45;5.45;;;;;;;18.98;51.81;101715.97;1521893;92;21101;-52
2022/10/09 02:03:47;;;;;;;8.68;5.97;;;;;;;18.94;51.71;101723.61;1558849;91;21077;-54
2022/10/09 02:06:16;;;;;;;12.68;6.12;;;;;;;18.92;51.90;101723.30;1546488;91;21089;-54
2022/10/09 02:08:44;;;;;;;5.87;5.30;;;;;;;18.92;51.86;101724.13;1561367;91;21009;-54
2022/10/09 02:11:16;;;;;;;7.85;5.92;;;;;;;18.94;51.88;101735.48;1565570;91;21100;-53
2022/10/09 02:13:45;;;;;;;8.53;5.67;;;;;;;18.92;51.79;101734.68;1561591;91;21113;-57
2022/10/09 02:16:20;;;;;;;6.75;5.80;;;;;;;18.90;51.63;101738.33;1569176;91;21101;-51
2022/10/09 02:18:59;;;;;;;6.75;5.67;;;;;;;18.85;51.57;101739.83;1560513;91;21104;-55
2022/10/09 02:21:29;;;;;;;7.15;5.83;;;;;;;18.81;51.61;101740.87;1582076;88;21052;-51
2022/10/09 02:23:56;;;;;;;8.95;5.83;;;;;;;18.78;51.56;101741.43;1598079;88;21115;-50
2022/10/09 02:26:23;;;;;;;9.65;6.25;;;;;;;18.75;51.65;101737.16;1597544;88;21131;-52
2022/10/09 02:28:51;;;;;;;7.80;5.72;;;;;;;18.71;51.80;101736.89;1597998;89;21104;-50
2022/10/09 02:31:31;;;;;;;7.37;5.80;;;;;;;18.68;52.10;101740.95;1630679;82;21054;-54
2022/10/09 02:34:03;;;;;;;6.62;5.72;;;;;;;18.66;52.26;101734.87;1717377;83;21038;-53
2022/10/09 02:36:30;;;;;;;;;;;;;;;18.63;52.06;101733.21;1718528;82;21501;-50
2022/10/09 02:38:57;;;;;;;7.35;5.30;;;;;;;18.62;52.11;101730.64;1713046;82;20086;-50
2022/10/09 02:41:24;;;;;;;10.63;6.12;;;;;;;18.57;52.17;101729.95;1714062;82;21038;-52
2022/10/09 02:43:51;;;;;;;13.78;6.33;;;;;;;18.55;52.20;101729.16;1705170;82;21549;-51
2022/10/09 02:46:18;;;;;;;7.10;5.60;;;;;;;18.56;52.24;101728.25;1716643;83;21001;-51
2022/10/09 02:48:46;;;;;;;6.15;5.50;;;;;;;18.58;52.33;101734.32;1716445;82;21136;-53
2022/10/09 02:51:12;;;;;;;6.37;5.78;;;;;;;18.58;52.52;101732.55;1716093;82;21505;-52
2022/10/09 02:53:39;;;;;;;6.42;5.22;;;;;;;18.59;52.51;101733.39;1714026;82;21084;-55
2022/10/09 02:56:06;;;;;;;7.55;5.87;;;;;;;18.58;52.36;101738.28;1713436;82;21038;-50
2022/10/09 02:58:33;;;;;;;8.73;6.40;;;;;;;18.57;52.37;101740.50;1708599;82;21065;-52
2022/10/09 03:01:00;;;;;;;8.03;6.70;;;;;;;18.56;52.52;101746.70;1716668;82;21006;-54
2022/10/09 03:03:27;;;;;;;9.98;6.42;;;;;;;18.53;52.48;101741.54;1720334;82;21081;-52
2022/10/09 03:06:11;;;;;;;7.10;6.40;;;;;;;18.52;52.54;101739.84;1714768;82;21054;-52
2022/10/09 03:08:42;;;;;;;9.38;5.67;;;;;;;18.50;52.61;101732.00;1714655;82;21050;-50
2022/10/09 03:11:10;;;;;;;6.67;5.97;;;;;;;18.49;52.62;101732.03;1715818;83;21025;-50
2022/10/09 03:13:38;;;;;;;6.83;5.58;;;;;;;18.47;52.48;101731.23;1723954;82;20990;-52
2022/10/09 03:16:14;;;;;;;10.10;5.80;;;;;;;18.42;52.42;101732.69;1716076;82;21506;-51
2022/10/09 03:18:42;;;;;;;7.05;5.45;;;;;;;18.39;52.54;101728.01;1672661;85;21136;-54
2022/10/09 03:21:12;;;;;;;7.60;6.17;;;;;;;18.35;52.67;101726.41;1681713;84;21093;-52
2022/10/09 03:23:38;;;;;;;7.12;5.87;;;;;;;18.33;52.67;101728.24;1679880;84;21493;-52
2022/10/09 03:26:08;;;;;;;6.83;5.60;;;;;;;18.30;52.65;101727.06;1685535;84;21093;-52
2022/10/09 03:28:38;;;;;;;6.45;5.65;;;;;;;18.26;52.72;101729.41;1685709;84;21049;-51
2022/10/09 03:31:06;;;;;;;7.22;5.58;;;;;;;18.22;52.88;101729.97;1685607;84;21041;-50
2022/10/09 03:33:34;;;;;;;6.85;6.12;;;;;;;18.21;52.97;101728.72;1685591;84;21529;-51
2022/10/09 03:36:03;;;;;;;8.65;6.17;;;;;;;18.21;53.06;101736.62;1685479;84;20986;-50
2022/10/09 03:38:29;;;;;;;8.98;5.85;;;;;;;18.24;53.11;101741.75;1685812;84;21537;-53
2022/10/09 03:40:59;;;;;;;7.42;6.03;;;;;;;18.25;52.96;101740.41;1685360;85;21583;-52
2022/10/09 03:43:25;;;;;;;8.35;6.03;;;;;;;18.27;52.92;101735.94;1685021;84;21056;-50
2022/10/09 03:45:52;;;;;;;8.13;6.33;;;;;;;18.28;53.02;101743.39;1685378;84;21055;-50
2022/10/09 03:48:19;;;;;;;8.60;5.90;;;;;;;18.29;53.10;101746.41;1685738;84;21049;-52
2022/10/09 03:50:46;;;;;;;8.05;5.70;;;;;;;18.31;52.82;101748.52;1685680;84;21687;-53
2022/10/09 03:53:13;;;;;;;7.67;6.28;;;;;;;18.31;52.72;101741.94;1685345;84;21096;-53
2022/10/09 03:55:41;;;;;;;7.20;6.50;;;;;;;18.30;52.69;101736.28;1685846;85;21094;-50
2022/10/09 03:58:08;;;;;;;7.72;6.05;;;;;;;18.31;52.56;101745.89;1685531;84;21093;-52
2022/10/09 04:00:35;;;;;;;7.62;6.25;;;;;;;18.28;52.28;101751.29;1685688;84;21061;-53
2022/10/09 04:03:02;;;;;;;6.70;6.10;;;;;;;18.24;52.46;101743.07;1685440;82;21145;-50
2022/10/09 04:05:34;;;;;;;7.50;6.33;;;;;;;18.19;52.60;101743.27;1685539;84;21085;-56
2022/10/09 04:08:02;;;;;;;7.00;6.20;;;;;;;18.15;52.64;101740.35;1685403;84;21070;-52
2022/10/09 04:10:29;;;;;;;7.75;6.10;;;;;;;18.13;52.71;101736.05;1685543;84;21135;-50
2022/10/09 04:12:56;;;;;;;6.70;5.95;;;;;;;18.11;52.73;101732.61;1685247;85;21040;-55
2022/10/09 04:15:24;;;;;;;8.75;6.25;;;;;;;18.11;52.83;101730.84;1685225;85;21041;-50
2022/10/09 04:17:52;;;;;;;7.62;5.90;;;;;;;18.11;52.74;101731.30;1685689;84;21106;-50
2022/10/09 04:20:19;;;;;;;9.00;7.37;;;;;;;18.08;52.84;101735.34;1679472;84;21094;-52
2022/10/09 04:22:47;;;;;;;9.43;6.33;;;;;;;18.08;53.03;101736.66;1714346;82;21069;-52
2022/10/09 04:25:14;;;;;;;7.53;6.35;;;;;;;18.10;52.93;101728.25;1713016;82;21011;-51
2022/10/09 04:27:42;;;;;;;7.30;6.58;;;;;;;18.10;52.81;101728.25;1713931;82;21034;-55
2022/10/09 04:30:09;;;;;;;7.05;6.08;;;;;;;18.12;52.84;101735.18;1713212;82;21050;-53
2022/10/09 04:32:37;;;;;;;7.28;6.55;;;;;;;18.13;52.73;101731.65;1715821;82;21024;-52
2022/10/09 04:35:05;;;;;;;7.97;6.55;;;;;;;18.13;52.75;101736.91;1712228;83;21018;-54
2022/10/09 04:37:32;;;;;;;6.85;6.15;;;;;;;18.18;52.77;101741.98;1712316;83;21603;-53
2022/10/09 04:39:58;;;;;;;6.95;6.10;;;;;;;18.22;52.81;101756.77;1718666;82;21061;-52
2022/10/09 04:42:25;;;;;;;7.08;6.37;;;;;;;18.25;52.53;101746.13;1715025;82;21046;-54
2022/10/09 04:44:51;;;;;;;8.55;6.47;;;;;;;18.28;52.64;101749.97;1713389;82;21037;-53
2022/10/09 04:47:19;;;;;;;9.88;6.72;;;;;;;18.30;52.55;101748.14;1713772;82;21034;-50
2022/10/09 04:49:46;;;;;;;7.80;6.50;;;;;;;18.30;52.95;101745.50;1713246;82;21072;-50
2022/10/09 04:52:14;;;;;;;7.15;6.45;;;;;;;18.31;52.84;101745.89;1713118;82;21084;-52
2022/10/09 04:54:42;;;;;;;8.10;6.83;;;;;;;18.32;52.79;101742.35;1714451;82;21010;-52
2022/10/09 04:57:08;;;;;;;8.88;6.67;;;;;;;18.33;52.85;101750.19;1716700;82;21546;-55
2022/10/09 04:59:36;;;;;;;7.25;6.42;;;;;;;18.33;53.17;101751.95;1716334;82;21597;-56
2022/10/09 05:02:03;;;;;;;7.95;7.15;;;;;;;18.34;53.29;101751.05;1713890;82;21113;-52
2022/10/09 05:04:30;;;;;;;9.40;6.83;;;;;;;18.34;53.65;101756.33;1715303;82;21025;-50
2022/10/09 05:06:57;;;;;;;8.73;7.10;;;;;;;18.31;54.03;101752.48;1710912;83;21037;-51
2022/10/09 05:09:23;;;;;;;9.13;7.17;;;;;;;18.29;54.13;101749.04;1716364;82;20994;-50
2022/10/09 05:11:51;;;;;;;9.48;7.53;;;;;;;18.27;54.27;101762.73;1715205;82;21534;-50
2022/10/09 05:14:18;;;;;;;7.10;6.40;;;;;;;18.25;54.29;101760.61;1704528;82;21006;-52
2022/10/09 05:16:44;;;;;;;11.55;7.67;;;;;;;18.24;54.26;101761.52;1716626;82;21018;-50
2022/10/09 05:19:12;;;;;;;8.65;7.35;;;;;;;18.22;54.26;101756.77;1719696;81;21565;-52
2022/10/09 05:21:39;;;;;;;9.15;7.30;;;;;;;18.21;54.38;101769.09;1720456;81;21034;-50
2022/10/09 05:24:05;;;;;;;7.30;6.62;;;;;;;18.22;54.36;101772.56;1720226;81;21064;-54
2022/10/09 05:26:32;;;;;;;8.83;7.92;;;;;;;18.24;54.36;101772.05;1721073;83;21558;-54
2022/10/09 05:28:59;;;;;;;10.18;7.42;;;;;;;18.25;54.42;101768.52;1721932;81;21037;-54
2022/10/09 05:31:30;;;;;;;8.43;6.87;;;;;;;18.26;54.39;101771.56;1722045;81;21506;-50
2022/10/09 05:33:59;;;;;;;8.75;7.05;;;;;;;18.27;54.21;101765.36;1720205;81;21030;-51
2022/10/09 05:36:26;;;;;;;8.70;7.28;;;;;;;18.27;54.20;101766.23;1713590;81;20965;-50
2022/10/09 05:38:54;;;;;;;11.43;7.42;;;;;;;18.29;54.17;101758.27;1718975;81;21125;-50
2022/10/09 05:41:21;;;;;;;8.10;7.22;;;;;;;18.29;54.15;101760.45;1720410;81;21506;-54
2022/10/09 05:43:48;;;;;;;9.63;7.25;;;;;;;18.29;54.06;101756.95;1717721;83;21053;-54
2022/10/09 05:46:18;;;;;;;9.38;7.30;;;;;;;18.30;54.05;101763.95;1721292;81;21030;-50
2022/10/09 05:48:52;;;;;;;;;;;;;;;18.30;53.93;101769.22;1728488;81;21570;-53
2022/10/09 05:51:25;;;;;;;10.08;7.28;;;;;;;18.30;54.04;101770.53;1722775;81;20142;-51
2022/10/09 05:53:52;;;;;;;8.65;7.28;;;;;;;18.27;53.84;101774.14;1670529;84;21542;-51
2022/10/09 05:56:25;;;;;;;8.45;6.97;;;;;;;18.27;53.94;101773.27;1651248;85;21051;-51
2022/10/09 05:58:54;;;;;;;10.08;6.72;;;;;;;18.27;53.86;101774.14;1672041;84;21144;-51
2022/10/09 06:01:22;;;;;;;8.50;6.95;;;;;;;18.29;53.74;101776.70;1669408;84;21186;-51
2022/10/09 06:03:52;;;;;;;8.80;7.67;;;;;;;18.31;53.75;101781.45;1670416;84;21077;-54
2022/10/09 06:06:20;;;;;;;7.97;6.97;;;;;;;18.32;53.51;101781.88;1638236;87;21113;-52
2022/10/09 06:08:47;;;;;;;9.40;7.00;;;;;;;18.39;53.30;101784.66;1638139;86;21088;-54
2022/10/09 06:11:22;;;;;;;8.08;6.90;;;;;;;18.47;52.98;101785.27;1637956;86;21053;-54
2022/10/09 06:13:50;;;;;;;10.08;7.17;;;;;;;18.57;52.73;101777.41;1638267;86;21540;-51
2022/10/09 06:16:17;;;;;;;12.37;7.78;;;;;;;18.65;52.41;101780.59;1616673;87;21053;-51
2022/10/09 06:18:46;;;;;;;10.55;6.87;;;;;;;18.66;52.21;101777.92;1637278;86;21105;-51
2022/10/09 06:21:13;;;;;;;7.75;6.90;;;;;;;18.67;52.00;101778.77;1628277;86;21033;-52
2022/10/09 06:23:40;;;;;;;7.97;6.12;;;;;;;18.67;51.93;101773.48;1635626;86;21045;-53
2022/10/09 06:26:10;;;;;;;8.18;6.47;;;;;;;18.65;51.88;101775.33;1635397;86;21616;-53
2022/10/09 06:28:39;;;;;;;7.40;6.62;;;;;;;18.65;51.88;101771.38;1635678;86;21489;-52
2022/10/09 06:31:12;;;;;;;7.90;6.35;;;;;;;18.64;52.01;101769.67;1633665;86;21535;-53
2022/10/09 06:33:40;;;;;;;6.97;6.28;;;;;;;18.67;51.96;101771.72;1608848;88;21073;-50
2022/10/09 06:36:14;;;;;;;8.20;6.37;;;;;;;18.71;51.92;101768.52;1581716;89;21117;-53
2022/10/09 06:38:40;;;;;;;6.95;6.15;;;;;;;18.76;51.69;101767.87;1585947;89;21534;-51
2022/10/09 06:41:15;;;;;;;8.43;6.70;;;;;;;18.80;51.62;101761.55;1642157;86;21121;-54
2022/10/09 06:43:42;;;;;;;10.60;6.78;;;;;;;18.87;51.64;101761.72;1610481;88;21073;-50
2022/10/09 06:46:10;;;;;;;11.90;7.12;;;;;;;18.93;51.88;101754.88;1641852;86;21073;-52
2022/10/09 06:48:38;;;;;;;8.10;6.95;;;;;;;19.00;51.48;101761.60;1642563;86;21037;-52
2022/10/09 06:51:11;;;;;;;8.75;7.03;;;;;;;19.02;51.38;101759.76;1629429;86;21063;-50
2022/10/09 06:53:42;;;;;;;10.18;6.90;;;;;;;19.04;51.44;101762.36;1540032;93;21086;-53
2022/10/09 06:56:09;;;;;;;7.30;6.45;;;;;;;19.06;51.18;101758.71;1474022;97;21201;-51
2022/10/09 06:58:37;;;;;;;8.38;6.25;;;;;;;19.09;51.27;101761.23;1473845;96;21568;-50
2022/10/09 07:01:13;;;;;;;8.08;5.90;;;;;;;19.09;51.23;101761.23;1474053;96;21163;-50
2022/10/09 07:03:41;;;;;;;7.33;6.58;;;;;;;19.09;51.25;101763.02;1477309;96;21122;-54
2022/10/09 07:06:19;;;;;;;8.35;7.00;;;;;;;19.11;51.54;101758.08;1535788;93;21099;-52
2022/10/09 07:08:54;;;;;;;15.78;6.30;;;;;;;19.16;51.68;101756.13;1536790;93;21118;-54
2022/10/09 07:11:26;;;;;;;7.50;6.55;;;;;;;19.20;51.61;101756.39;1557797;92;21619;-50
2022/10/09 07:13:56;;;;;;;10.32;7.00;;;;;;;19.25;51.28;101754.41;1551123;92;21615;-51
2022/10/09 07:16:32;;;;;;;9.03;6.75;;;;;;;19.27;51.07;101748.59;1555301;92;21059;-52
2022/10/09 07:19:02;;;;;;;12.90;7.20;;;;;;;19.27;51.06;101749.92;1552778;91;21691;-52
2022/10/09 07:21:28;;;;;;;8.03;6.65;;;;;;;19.28;51.15;101756.93;1544347;92;21151;-51
2022/10/09 07:23:55;;;;;;;8.88;7.45;;;;;;;19.28;51.08;101755.61;1545605;92;21562;-50
2022/10/09 07:26:27;;;;;;;7.65;6.85;;;;;;;19.29;51.43;101753.80;1551035;92;21154;-50
2022/10/09 07:28:54;;;;;;;9.93;6.92;;;;;;;19.30;51.66;101752.44;1551372;92;21106;-50
2022/10/09 07:31:21;;;;;;;9.13;7.05;;;;;;;19.32;51.57;101753.23;1521326;93;21172;-54
2022/10/09 07:33:50;;;;;;;8.30;7.00;;;;;;;19.34;51.74;101756.70;1517175;94;21571;-54
2022/10/09 07:36:16;;;;;;;7.62;6.60;;;;;;;19.40;51.29;101759.08;1516197;94;21087;-52
2022/10/09 07:38:49;;;;;;;10.80;6.53;;;;;;;19.43;51.33;101761.58;1518318;94;21149;-49
2022/10/09 07:41:16;;;;;;;9.38;7.00;;;;;;;19.47;51.14;101768.92;1520035;94;21146;-53
2022/10/09 07:43:42;;;;;;;9.03;7.47;;;;;;;19.52;51.22;101763.42;1510662;94;21155;-52
2022/10/09 07:46:12;;;;;;;8.48;6.20;;;;;;;19.56;51.35;101764.55;1514634;94;21074;-54
2022/10/09 07:48:38;;;;;;;7.03;6.35;;;;;;;19.63;51.32;101762.52;1513971;94;21101;-51
2022/10/09 07:51:17;;;;;;;13.53;7.40;;;;;;;19.66;51.36;101754.47;1600064;86;21054;-51
2022/10/09 07:53:44;;;;;;;7.85;6.78;;;;;;;19.70;51.29;101750.77;1688589;82;21056;-51
2022/10/09 07:56:15;;;;;;;10.65;6.92;;;;;;;19.73;51.27;101755.91;1706081;82;21071;-54
2022/10/09 07:58:42;;;;;;;9.30;7.87;;;;;;;19.77;51.27;101749.56;1703766;83;21043;-52
2022/10/09 08:01:09;;;;;;;8.18;7.30;;;;;;;19.79;51.35;101750.35;1703279;84;21005;-54
2022/10/09 08:03:37;;;;;;;9.83;6.78;;;;;;;19.84;51.47;101756.30;1703536;83;21043;-51
2022/10/09 08:06:05;;;;;;;9.98;6.85;;;;;;;19.88;51.44;101763.17;1703669;83;21051;-50
2022/10/09 08:08:32;;;;;;;10.35;7.28;;;;;;;19.91;51.28;101765.66;1679053;84;21556;-53
2022/10/09 08:11:02;;;;;;;7.47;6.70;;;;;;;19.93;51.30;101769.09;1677026;84;21036;-51
2022/10/09 08:13:29;;;;;;;10.32;7.28;;;;;;;19.94;51.07;101766.40;1662144;84;21108;-56
2022/10/09 08:15:57;;;;;;;8.15;7.22;;;;;;;19.97;51.04;101760.13;1677218;84;21717;-54
2022/10/09 08:18:24;;;;;;;10.40;7.25;;;;;;;20.00;51.17;101759.97;1676776;85;21496;-51
2022/10/09 08:21:00;;;;;;;8.85;6.97;;;;;;;20.03;51.19;101762.49;1677021;84;21112;-50
2022/10/09 08:23:27;;;;;;;8.50;7.47;;;;;;;20.07;51.24;101769.36;1656838;85;21539;-54
2022/10/09 08:25:54;;;;;;;8.70;7.00;;;;;;;20.12;51.27;101776.14;1656181;86;21058;-53
2022/10/09 08:28:20;;;;;;;8.03;6.97;;;;;;;20.18;51.24;101769.71;1656187;85;21576;-52
2022/10/09 08:30:47;;;;;;;9.78;7.15;;;;;;;20.23;51.23;101765.98;1656192;85;21079;-52
2022/10/09 08:33:19;;;;;;;10.18;8.13;;;;;;;20.29;50.98;101759.55;1656190;85;21056;-50
2022/10/09 08:35:43;;;;;;;11.12;8.08;;;;;;;20.35;50.68;101760.59;1653018;85;21599;-51
2022/10/09 08:38:10;;;;;;;8.23;7.42;;;;;;;20.39;50.64;101756.01;1656415;85;21111;-51
2022/10/09 08:40:53;;;;;;;8.43;7.05;;;;;;;20.43;50.74;101750.97;1656248;85;21059;-52
2022/10/09 08:43:26;;;;;;;10.93;6.47;;;;;;;20.47;50.26;101745.47;1600209;89;21060;-50
2022/10/09 08:45:53;;;;;;;12.93;6.92;;;;;;;20.52;50.29;101748.77;1604168;89;21532;-51
2022/10/09 08:48:21;;;;;;;9.13;7.40;;;;;;;20.56;50.18;101755.63;1604568;89;21120;-50
2022/10/09 08:50:50;;;;;;;8.08;6.95;;;;;;;20.61;49.92;101753.61;1603992;89;21065;-52
2022/10/09 08:53:31;;;;;;;8.30;6.75;;;;;;;20.67;49.70;101763.06;1592670;89;21052;-50
2022/10/09 08:56:01;;;;;;;10.10;6.67;;;;;;;20.72;49.53;101759.25;1609492;88;21068;-54
2022/10/09 08:58:33;;;;;;;7.22;6.47;;;;;;;20.78;49.51;101753.67;1618973;88;21111;-54
2022/10/09 09:01:04;;;;;;;11.78;6.47;;;;;;;20.83;49.45;101764.90;1630399;86;21140;-50
2022/10/09 09:03:53;;;;;;;8.93;6.33;;;;;;;20.86;49.30;101756.80;1630839;87;21037;-56
2022/10/09 09:06:32;;;;;;;10.40;6.72;;;;;;;20.92;49.33;101758.28;1628598;87;21094;-51
2022/10/09 09:09:26;;;;;;;9.08;6.30;;;;;;;20.97;49.43;101763.76;1561477;92;21158;-51
2022/10/09 09:12:13;;;;;;;7.60;6.40;;;;;;;21.03;49.33;101755.55;1513772;95;21101;-52
2022/10/09 09:15:20;;;;;;;7.78;5.90;;;;;;;21.10;49.62;101759.22;1459913;97;21172;-56
2022/10/09 09:18:07;;;;;;;6.20;5.60;;;;;;;21.17;49.43;101753.99;1416868;99;21134;-52
2022/10/09 09:20:54;;;;;;;9.30;5.97;;;;;;;21.25;49.34;101761.08;1350560;106;21210;-50
2022/10/09 09:23:26;;;;;;;9.18;6.12;;;;;;;21.34;48.85;101766.79;1355173;104;21171;-53
2022/10/09 09:25:52;;;;;;;;;;;;;;;21.42;48.72;101763.75;1360839;106;21196;-51
2022/10/09 09:28:25;;;;;;;9.80;6.08;;;;;;;21.48;48.80;101763.44;1358608;104;20168;-50
2022/10/09 09:31:16;;;;;;;6.97;6.22;;;;;;;21.54;48.74;101763.98;1360797;104;21191;-51
2022/10/09 09:34:04;;;;;;;8.08;5.97;;;;;;;21.61;48.56;101761.88;1355213;106;21221;-51
2022/10/09 09:36:48;;;;;;;6.08;5.08;;;;;;;21.66;48.27;101758.05;1356176;104;21218;-52
2022/10/09 09:39:15;;;;;;;8.80;5.83;;;;;;;21.76;48.10;101762.42;1346645;105;21212;-54
2022/10/09 09:41:42;;;;;;;7.15;5.67;;;;;;;21.85;47.94;101757.98;1323263;107;21216;-55
2022/10/09 09:44:10;;;;;;;8.03;5.58;;;;;;;21.92;48.21;101759.39;1332218;107;21183;-54
2022/10/09 09:46:38;;;;;;;6.92;5.67;;;;;;;21.99;48.25;101752.80;1349432;104;21188;-53
2022/10/09 09:49:20;;;;;;;7.30;5.85;;;;;;;22.08;47.90;101752.33;1358220;105;21142;-52
2022/10/09 09:51:48;;;;;;;8.53;5.95;;;;;;;22.15;47.79;101755.05;1398501;100;21127;-51
2022/10/09 09:54:25;;;;;;;9.35;5.97;;;;;;;22.21;47.90;101754.71;1437933;97;21094;-51
2022/10/09 09:56:55;;;;;;;9.93;5.80;;;;;;;22.26;47.88;101759.73;1468190;97;21169;-56
2022/10/09 09:59:36;;;;;;;9.55;6.10;;;;;;;22.30;47.91;101749.35;1425336;100;21092;-51
2022/10/09 10:02:21;;;;;;;7.40;5.72;;;;;;;22.32;47.48;101748.34;1423043;100;21166;-52
2022/10/09 10:04:52;;;;;;;9.20;6.10;;;;;;;22.35;47.06;101750.84;1435554;95;21140;-57
2022/10/09 10:07:34;;;;;;;6.37;5.70;;;;;;;22.37;46.75;101746.30;1501952;95;21148;-53
2022/10/09 10:10:10;;;;;;;6.33;5.42;;;;;;;22.42;46.91;101743.41;1495953;95;21198;-51
2022/10/09 10:12:47;;;;;;;5.58;5.05;;;;;;;22.46;46.87;101744.95;1498603;95;21104;-50
2022/10/09 10:15:28;;;;;;;6.45;5.42;;;;;;;22.51;46.00;101743.73;1477946;96;21109;-51
2022/10/09 10:18:04;;;;;;;10.15;5.78;;;;;;;22.56;45.47;101736.39;1494512;94;21141;-50
2022/10/09 10:20:34;;;;;;;6.25;5.62;;;;;;;22.64;45.49;101739.50;1494137;94;21162;-51
2022/10/09 10:23:01;;;;;;;6.37;5.67;;;;;;;22.73;45.55;101733.29;1487369;95;21118;-52
2022/10/09 10:25:31;;;;;;;9.18;5.60;;;;;;;22.80;45.54;101731.52;1493057;95;21168;-54
2022/10/09 10:28:03;;;;;;;6.00;5.45;;;;;;;22.87;45.48;101734.68;1493160;95;21091;-51
2022/10/09 10:30:30;;;;;;;8.43;5.37;;;;;;;22.93;45.46;101729.88;1477454;94;21592;-50
2022/10/09 10:33:04;;;;;;;7.58;5.55;;;;;;;22.99;45.53;101728.66;1494792;94;21177;-50
2022/10/09 10:35:37;;;;;;;7.03;5.53;;;;;;;23.06;45.26;101732.69;1495869;94;21081;-57
2022/10/09 10:38:18;;;;;;;8.58;5.83;;;;;;;23.09;45.16;101727.18;1474712;95;21128;-51
2022/10/09 10:41:10;;;;;;;6.22;5.30;;;;;;;23.14;45.66;101729.11;1478531;96;21591;-50
2022/10/09 10:43:50;;;;;;;7.80;5.55;;;;;;;23.17;45.62;101728.45;1479807;96;21151;-53
2022/10/09 10:46:51;;;;;;;6.78;5.60;;;;;;;23.19;45.63;101715.08;1479591;96;21103;-55
2022/10/09 10:49:20;;;;;;;7.15;6.03;;;;;;;23.22;45.63;101709.59;1479780;95;21132;-52
2022/10/09 10:52:04;;;;;;;7.42;5.58;;;;;;;23.25;45.40;101718.70;1479750;95;21089;-50
2022/10/09 10:54:54;;;;;;;8.00;6.20;;;;;;;23.27;45.23;101707.51;1454303;97;21085;-55
2022/10/09 10:57:32;;;;;;;9.10;5.90;;;;;;;23.29;45.10;101704.28;1459576;97;21184;-51
2022/10/09 11:00:09;;;;;;;7.05;5.37;;;;;;;23.30;45.09;101707.34;1459140;97;21134;-51
2022/10/09 11:03:15;;;;;;;8.75;5.58;;;;;;;23.31;44.96;101698.41;1434343;99;21610;-50
2022/10/09 11:06:00;;;;;;;7.53;6.15;;;;;;;23.33;44.79;101699.20;1472971;96;21076;-51
2022/10/09 11:08:59;;;;;;;7.60;5.47;;;;;;;23.36;44.93;101701.70;1426469;100;21178;-51
2022/10/09 11:11:39;;;;;;;6.20;5.60;;;;;;;23.37;44.38;101702.06;1404035;99;21702;-52
2022/10/09 11:14:37;;;;;;;8.93;5.25;;;;;;;23.37;44.32;101697.61;1429463;100;21128;-51
2022/10/09 11:17:36;;;;;;;6.12;5.40;;;;;;;23.37;43.83;101700.27;1433196;99;21161;-56
2022/10/09 11:20:47;;;;;;;6.12;5.50;;;;;;;23.37;43.58;101695.42;1363460;104;21711;-52
2022/10/09 11:23:31;;;;;;;7.42;5.90;;;;;;;23.38;43.14;101699.80;1351187;106;21154;-57
2022/10/09 11:26:25;;;;;;;6.90;4.87;;;;;;;23.39;43.22;101701.49;1351627;105;21604;-53
2022/10/09 11:28:59;;;;;;;7.10;5.25;;;;;;;23.42;43.54;101701.33;1407463;100;21097;-50
2022/10/09 11:31:34;;;;;;;7.25;5.30;;;;;;;23.47;43.95;101701.05;1386038;100;21205;-50
2022/10/09 11:34:15;;;;;;;5.60;4.95;;;;;;;23.50;43.35;101700.38;1408038;100;21641;-52
2022/10/09 11:36:43;;;;;;;7.55;6.00;;;;;;;23.53;43.20;101697.56;1392903;102;21131;-52
2022/10/09 11:39:22;;;;;;;8.78;5.80;;;;;;;23.58;43.54;101692.80;1392260;102;21205;-50
2022/10/09 11:41:52;;;;;;;7.85;5.75;;;;;;;23.62;43.71;101694.82;1357573;105;21098;-55
2022/10/09 11:45:04;;;;;;;8.13;5.45;;;;;;;23.65;43.89;101695.48;1355621;104;21646;-51
2022/10/09 11:47:45;;;;;;;11.53;5.83;;;;;;;23.70;43.80;101692.55;1371679;105;21161;-53